Terminal Aerodrome Forecast
Issued by NWS

Current Version | Previous Version | Text Only | Print | Product List | Glossary On
Versions: 1 2 3 4 5 6 7 8 9 10 11 12 13 14 15 16 17 18 19 20 21 22 23 24 25
000
FTUS46 KSGX 230100 AAA
TAFSAN
TAF AMD
KSAN 230109Z 2301/2406 30007KT P6SM SKC
     FM230230 VRB04KT 3SM BR SKC
      TEMPO 2304/2306 1SM BR SCT001
     FM230800 VRB04KT P6SM SKC
     FM232100 30008G15KT P6SM SKC=

USA.gov is the U.S. government's official web portal to all federal, state and local government web resources and services.